sensor_id;sensor_type;location;lat;lon;timestamp;temperature;humidity
46652;DHT22;32377;52.182;5.398;2023-04-15T00:00:09;9.00;99.90
46652;DHT22;32377;52.182;5.398;2023-04-15T00:02:36;8.90;99.90
46652;DHT22;32377;52.182;5.398;2023-04-15T00:05:03;8.90;99.90
46652;DHT22;32377;52.182;5.398;2023-04-15T00:07:29;8.90;99.90
46652;DHT22;32377;52.182;5.398;2023-04-15T00:09:54;8.80;99.90
46652;DHT22;32377;52.182;5.398;2023-04-15T00:12:26;8.80;99.90
46652;DHT22;32377;52.182;5.398;2023-04-15T00:14:51;8.80;99.90
46652;DHT22;32377;52.182;5.398;2023-04-15T00:17:17;8.80;99.90
46652;DHT22;32377;52.182;5.398;2023-04-15T00:19:43;8.80;99.90
46652;DHT22;32377;52.182;5.398;2023-04-15T00:22:13;8.70;99.90
46652;DHT22;32377;52.182;5.398;2023-04-15T00:24:39;8.70;99.90
46652;DHT22;32377;52.182;5.398;2023-04-15T00:27:04;8.70;99.90
46652;DHT22;32377;52.182;5.398;2023-04-15T00:29:30;8.70;99.90
46652;DHT22;32377;52.182;5.398;2023-04-15T00:31:56;8.60;99.90
46652;DHT22;32377;52.182;5.398;2023-04-15T00:34:22;8.60;99.90
46652;DHT22;32377;52.182;5.398;2023-04-15T00:36:49;8.50;99.90
46652;DHT22;32377;52.182;5.398;2023-04-15T00:39:14;8.50;99.90
46652;DHT22;32377;52.182;5.398;2023-04-15T00:41:41;8.50;99.90
46652;DHT22;32377;52.182;5.398;2023-04-15T00:44:07;8.50;99.90
46652;DHT22;32377;52.182;5.398;2023-04-15T00:46:35;8.50;99.90
46652;DHT22;32377;52.182;5.398;2023-04-15T00:49:03;8.40;99.90
46652;DHT22;32377;52.182;5.398;2023-04-15T00:51:29;8.40;99.90
46652;DHT22;32377;52.182;5.398;2023-04-15T00:53:58;8.40;99.90
46652;DHT22;32377;52.182;5.398;2023-04-15T00:56:24;8.40;99.90
46652;DHT22;32377;52.182;5.398;2023-04-15T00:58:50;8.30;99.90
46652;DHT22;32377;52.182;5.398;2023-04-15T01:01:20;8.30;99.90
46652;DHT22;32377;52.182;5.398;2023-04-15T01:03:48;8.20;99.90
46652;DHT22;32377;52.182;5.398;2023-04-15T01:06:14;8.20;99.90
46652;DHT22;32377;52.182;5.398;2023-04-15T01:08:41;8.10;99.90
46652;DHT22;32377;52.182;5.398;2023-04-15T01:11:06;8.10;99.90
46652;DHT22;32377;52.182;5.398;2023-04-15T01:13:33;8.10;99.90
46652;DHT22;32377;52.182;5.398;2023-04-15T01:15:59;8.10;99.90
46652;DHT22;32377;52.182;5.398;2023-04-15T01:18:26;8.10;99.90
46652;DHT22;32377;52.182;5.398;2023-04-15T01:20:52;8.10;99.90
46652;DHT22;32377;52.182;5.398;2023-04-15T01:23:18;8.10;99.90
46652;DHT22;32377;52.182;5.398;2023-04-15T01:25:44;8.10;99.90
46652;DHT22;32377;52.182;5.398;2023-04-15T01:28:10;8.00;99.90
46652;DHT22;32377;52.182;5.398;2023-04-15T01:30:36;8.00;99.90
46652;DHT22;32377;52.182;5.398;2023-04-15T01:33:02;8.00;99.90
46652;DHT22;32377;52.182;5.398;2023-04-15T01:35:28;7.90;99.90
46652;DHT22;32377;52.182;5.398;2023-04-15T01:37:54;7.90;99.90
46652;DHT22;32377;52.182;5.398;2023-04-15T01:40:21;7.90;99.90
46652;DHT22;32377;52.182;5.398;2023-04-15T01:42:47;7.90;99.90
46652;DHT22;32377;52.182;5.398;2023-04-15T01:45:12;7.90;99.90
46652;DHT22;32377;52.182;5.398;2023-04-15T01:47:38;7.90;99.90
46652;DHT22;32377;52.182;5.398;2023-04-15T01:50:04;7.90;99.90
46652;DHT22;32377;52.182;5.398;2023-04-15T01:52:31;7.90;99.90
46652;DHT22;32377;52.182;5.398;2023-04-15T01:54:57;7.90;99.90
46652;DHT22;32377;52.182;5.398;2023-04-15T01:57:22;7.80;99.90
46652;DHT22;32377;52.182;5.398;2023-04-15T01:59:48;7.80;99.90
46652;DHT22;32377;52.182;5.398;2023-04-15T02:02:13;7.80;99.90
46652;DHT22;32377;52.182;5.398;2023-04-15T02:04:39;7.80;99.90
46652;DHT22;32377;52.182;5.398;2023-04-15T02:07:05;7.70;99.90
46652;DHT22;32377;52.182;5.398;2023-04-15T02:09:31;7.70;99.90
46652;DHT22;32377;52.182;5.398;2023-04-15T02:11:57;7.80;99.90
46652;DHT22;32377;52.182;5.398;2023-04-15T02:14:22;7.70;99.90
46652;DHT22;32377;52.182;5.398;2023-04-15T02:16:48;7.60;99.90
46652;DHT22;32377;52.182;5.398;2023-04-15T02:19:13;7.60;99.90
46652;DHT22;32377;52.182;5.398;2023-04-15T02:21:40;7.60;99.90
46652;DHT22;32377;52.182;5.398;2023-04-15T02:24:06;7.50;99.90
46652;DHT22;32377;52.182;5.398;2023-04-15T02:26:31;7.50;99.90
46652;DHT22;32377;52.182;5.398;2023-04-15T02:28:58;7.50;99.90
46652;DHT22;32377;52.182;5.398;2023-04-15T02:31:24;7.50;99.90
46652;DHT22;32377;52.182;5.398;2023-04-15T02:33:49;7.50;99.90
46652;DHT22;32377;52.182;5.398;2023-04-15T02:36:15;7.50;99.90
46652;DHT22;32377;52.182;5.398;2023-04-15T02:38:40;7.50;99.90
46652;DHT22;32377;52.182;5.398;2023-04-15T02:41:08;7.40;99.90
46652;DHT22;32377;52.182;5.398;2023-04-15T02:43:34;7.50;99.90
46652;DHT22;32377;52.182;5.398;2023-04-15T02:46:00;7.50;99.90
46652;DHT22;32377;52.182;5.398;2023-04-15T02:48:26;7.40;99.90
46652;DHT22;32377;52.182;5.398;2023-04-15T02:50:51;7.40;99.90
46652;DHT22;32377;52.182;5.398;2023-04-15T02:53:17;7.40;99.90
46652;DHT22;32377;52.182;5.398;2023-04-15T02:55:44;7.30;99.90
46652;DHT22;32377;52.182;5.398;2023-04-15T02:58:09;7.20;99.90
46652;DHT22;32377;52.182;5.398;2023-04-15T03:00:35;7.20;99.90
46652;DHT22;32377;52.182;5.398;2023-04-15T03:03:04;7.10;99.90
46652;DHT22;32377;52.182;5.398;2023-04-15T03:05:30;7.10;99.90
46652;DHT22;32377;52.182;5.398;2023-04-15T03:07:56;7.10;99.90
46652;DHT22;32377;52.182;5.398;2023-04-15T03:10:22;7.00;99.90
46652;DHT22;32377;52.182;5.398;2023-04-15T03:12:47;7.00;99.90
46652;DHT22;32377;52.182;5.398;2023-04-15T03:15:13;6.90;99.90
46652;DHT22;32377;52.182;5.398;2023-04-15T03:17:39;6.80;99.90
46652;DHT22;32377;52.182;5.398;2023-04-15T03:20:05;6.80;99.90
46652;DHT22;32377;52.182;5.398;2023-04-15T03:22:32;6.70;99.90
46652;DHT22;32377;52.182;5.398;2023-04-15T03:24:57;6.80;99.90
46652;DHT22;32377;52.182;5.398;2023-04-15T03:27:23;6.70;99.90
46652;DHT22;32377;52.182;5.398;2023-04-15T03:29:49;6.70;99.90
46652;DHT22;32377;52.182;5.398;2023-04-15T03:32:15;6.70;99.90
46652;DHT22;32377;52.182;5.398;2023-04-15T03:34:41;6.70;99.90
46652;DHT22;32377;52.182;5.398;2023-04-15T03:37:06;6.60;99.90
46652;DHT22;32377;52.182;5.398;2023-04-15T03:39:33;6.60;99.90
46652;DHT22;32377;52.182;5.398;2023-04-15T03:41:59;6.60;99.90
46652;DHT22;32377;52.182;5.398;2023-04-15T03:44:27;6.60;99.90
46652;DHT22;32377;52.182;5.398;2023-04-15T03:46:53;6.60;99.90
46652;DHT22;32377;52.182;5.398;2023-04-15T03:49:19;6.60;99.90
46652;DHT22;32377;52.182;5.398;2023-04-15T03:51:47;6.60;99.90
46652;DHT22;32377;52.182;5.398;2023-04-15T03:54:12;6.50;99.90
46652;DHT22;32377;52.182;5.398;2023-04-15T03:59:18;6.50;99.90
46652;DHT22;32377;52.182;5.398;2023-04-15T04:01:44;6.40;99.90
46652;DHT22;32377;52.182;5.398;2023-04-15T04:04:10;6.40;99.90
46652;DHT22;32377;52.182;5.398;2023-04-15T04:06:35;6.40;99.90
46652;DHT22;32377;52.182;5.398;2023-04-15T04:09:01;6.40;99.90
46652;DHT22;32377;52.182;5.398;2023-04-15T04:11:27;6.30;99.90
46652;DHT22;32377;52.182;5.398;2023-04-15T04:13:52;6.30;99.90
46652;DHT22;32377;52.182;5.398;2023-04-15T04:16:18;6.20;99.90
46652;DHT22;32377;52.182;5.398;2023-04-15T04:18:44;6.20;99.90
46652;DHT22;32377;52.182;5.398;2023-04-15T04:21:10;6.20;99.90
46652;DHT22;32377;52.182;5.398;2023-04-15T04:23:36;6.20;99.90
46652;DHT22;32377;52.182;5.398;2023-04-15T04:26:01;6.20;99.90
46652;DHT22;32377;52.182;5.398;2023-04-15T04:28:27;6.10;99.90
46652;DHT22;32377;52.182;5.398;2023-04-15T04:30:52;6.10;99.90
46652;DHT22;32377;52.182;5.398;2023-04-15T04:33:18;6.10;99.90
46652;DHT22;32377;52.182;5.398;2023-04-15T04:35:44;6.00;99.90
46652;DHT22;32377;52.182;5.398;2023-04-15T04:38:09;6.00;99.90
46652;DHT22;32377;52.182;5.398;2023-04-15T04:40:35;6.00;99.90
46652;DHT22;32377;52.182;5.398;2023-04-15T04:43:01;6.00;99.90
46652;DHT22;32377;52.182;5.398;2023-04-15T04:45:27;5.90;99.90
46652;DHT22;32377;52.182;5.398;2023-04-15T04:47:52;5.80;99.90
46652;DHT22;32377;52.182;5.398;2023-04-15T04:50:18;5.80;99.90
46652;DHT22;32377;52.182;5.398;2023-04-15T04:52:44;5.80;99.90
46652;DHT22;32377;52.182;5.398;2023-04-15T04:55:09;5.80;99.90
46652;DHT22;32377;52.182;5.398;2023-04-15T04:57:35;5.80;99.90
46652;DHT22;32377;52.182;5.398;2023-04-15T05:00:01;5.80;99.90
46652;DHT22;32377;52.182;5.398;2023-04-15T05:02:29;5.80;99.90
46652;DHT22;32377;52.182;5.398;2023-04-15T05:04:55;5.80;99.90
46652;DHT22;32377;52.182;5.398;2023-04-15T05:07:21;5.80;99.90
46652;DHT22;32377;52.182;5.398;2023-04-15T05:09:46;5.80;99.90
46652;DHT22;32377;52.182;5.398;2023-04-15T05:12:12;5.80;99.90
46652;DHT22;32377;52.182;5.398;2023-04-15T05:14:40;5.90;99.90
46652;DHT22;32377;52.182;5.398;2023-04-15T05:17:06;5.80;99.90
46652;DHT22;32377;52.182;5.398;2023-04-15T05:19:32;5.80;99.90
46652;DHT22;32377;52.182;5.398;2023-04-15T05:21:57;5.90;99.90
46652;DHT22;32377;52.182;5.398;2023-04-15T05:24:23;5.90;99.90
46652;DHT22;32377;52.182;5.398;2023-04-15T05:26:49;5.90;99.90
46652;DHT22;32377;52.182;5.398;2023-04-15T05:29:14;5.90;99.90
46652;DHT22;32377;52.182;5.398;2023-04-15T05:31:40;6.00;99.90
46652;DHT22;32377;52.182;5.398;2023-04-15T05:34:06;6.00;99.90
46652;DHT22;32377;52.182;5.398;2023-04-15T05:36:31;6.00;99.90
46652;DHT22;32377;52.182;5.398;2023-04-15T05:38:57;6.10;99.90
46652;DHT22;32377;52.182;5.398;2023-04-15T05:41:23;6.10;99.90
46652;DHT22;32377;52.182;5.398;2023-04-15T05:43:48;6.10;99.90
46652;DHT22;32377;52.182;5.398;2023-04-15T05:46:14;6.10;99.90
46652;DHT22;32377;52.182;5.398;2023-04-15T05:48:40;6.20;99.90
46652;DHT22;32377;52.182;5.398;2023-04-15T05:51:06;6.20;99.90
46652;DHT22;32377;52.182;5.398;2023-04-15T05:53:31;6.20;99.90
46652;DHT22;32377;52.182;5.398;2023-04-15T05:55:57;6.20;99.90
46652;DHT22;32377;52.182;5.398;2023-04-15T05:58:22;6.20;99.90
46652;DHT22;32377;52.182;5.398;2023-04-15T06:00:48;6.20;99.90
46652;DHT22;32377;52.182;5.398;2023-04-15T06:03:14;6.20;99.90
46652;DHT22;32377;52.182;5.398;2023-04-15T06:05:41;6.20;99.90
46652;DHT22;32377;52.182;5.398;2023-04-15T06:08:06;6.20;99.90
46652;DHT22;32377;52.182;5.398;2023-04-15T06:10:34;6.20;99.90
46652;DHT22;32377;52.182;5.398;2023-04-15T06:13:01;6.20;99.90
46652;DHT22;32377;52.182;5.398;2023-04-15T06:15:28;6.20;99.90
46652;DHT22;32377;52.182;5.398;2023-04-15T06:17:54;6.30;99.90
46652;DHT22;32377;52.182;5.398;2023-04-15T06:20:20;6.30;99.90
46652;DHT22;32377;52.182;5.398;2023-04-15T06:22:46;6.30;99.90
46652;DHT22;32377;52.182;5.398;2023-04-15T06:25:11;6.30;99.90
46652;DHT22;32377;52.182;5.398;2023-04-15T06:27:37;6.40;99.90
46652;DHT22;32377;52.182;5.398;2023-04-15T06:30:03;6.40;99.90
46652;DHT22;32377;52.182;5.398;2023-04-15T06:32:29;6.60;99.90
46652;DHT22;32377;52.182;5.398;2023-04-15T06:34:55;6.60;99.90
46652;DHT22;32377;52.182;5.398;2023-04-15T06:37:21;6.70;99.90
46652;DHT22;32377;52.182;5.398;2023-04-15T06:39:46;6.80;99.90
46652;DHT22;32377;52.182;5.398;2023-04-15T06:42:12;6.90;99.90
46652;DHT22;32377;52.182;5.398;2023-04-15T06:44:38;7.00;99.90
46652;DHT22;32377;52.182;5.398;2023-04-15T06:47:04;7.10;99.90
46652;DHT22;32377;52.182;5.398;2023-04-15T06:49:30;7.20;99.90
46652;DHT22;32377;52.182;5.398;2023-04-15T06:51:56;7.20;99.90
46652;DHT22;32377;52.182;5.398;2023-04-15T06:54:21;7.30;99.90
46652;DHT22;32377;52.182;5.398;2023-04-15T06:56:47;7.40;99.90
46652;DHT22;32377;52.182;5.398;2023-04-15T06:59:13;7.50;99.90
46652;DHT22;32377;52.182;5.398;2023-04-15T07:01:42;7.70;99.90
46652;DHT22;32377;52.182;5.398;2023-04-15T07:04:08;7.80;99.90
46652;DHT22;32377;52.182;5.398;2023-04-15T07:06:33;7.90;99.90
46652;DHT22;32377;52.182;5.398;2023-04-15T07:09:00;8.10;99.90
46652;DHT22;32377;52.182;5.398;2023-04-15T07:11:26;8.20;99.90
46652;DHT22;32377;52.182;5.398;2023-04-15T07:13:51;8.30;99.90
46652;DHT22;32377;52.182;5.398;2023-04-15T07:16:17;8.50;99.90
46652;DHT22;32377;52.182;5.398;2023-04-15T07:18:43;8.60;99.90
46652;DHT22;32377;52.182;5.398;2023-04-15T07:21:09;8.70;99.90
46652;DHT22;32377;52.182;5.398;2023-04-15T07:23:34;8.70;99.90
46652;DHT22;32377;52.182;5.398;2023-04-15T07:26:00;8.60;99.90
46652;DHT22;32377;52.182;5.398;2023-04-15T07:28:26;8.70;99.90
46652;DHT22;32377;52.182;5.398;2023-04-15T07:30:52;8.70;99.90
46652;DHT22;32377;52.182;5.398;2023-04-15T07:33:18;8.80;99.90
46652;DHT22;32377;52.182;5.398;2023-04-15T07:35:43;8.90;99.90
46652;DHT22;32377;52.182;5.398;2023-04-15T07:38:09;9.00;99.90
46652;DHT22;32377;52.182;5.398;2023-04-15T07:40:38;9.10;99.90
46652;DHT22;32377;52.182;5.398;2023-04-15T07:43:04;9.20;99.90
46652;DHT22;32377;52.182;5.398;2023-04-15T07:45:31;9.30;99.90
46652;DHT22;32377;52.182;5.398;2023-04-15T07:47:56;9.50;99.90
46652;DHT22;32377;52.182;5.398;2023-04-15T07:50:22;9.60;99.90
46652;DHT22;32377;52.182;5.398;2023-04-15T07:52:49;9.80;99.90
46652;DHT22;32377;52.182;5.398;2023-04-15T07:55:16;9.80;99.90
46652;DHT22;32377;52.182;5.398;2023-04-15T07:57:43;9.80;99.90
46652;DHT22;32377;52.182;5.398;2023-04-15T08:00:12;9.90;99.90
46652;DHT22;32377;52.182;5.398;2023-04-15T08:02:37;10.00;99.90
46652;DHT22;32377;52.182;5.398;2023-04-15T08:05:03;10.10;99.90
46652;DHT22;32377;52.182;5.398;2023-04-15T08:07:29;10.00;99.90
46652;DHT22;32377;52.182;5.398;2023-04-15T08:09:55;10.00;99.90
46652;DHT22;32377;52.182;5.398;2023-04-15T08:12:21;10.00;99.90
46652;DHT22;32377;52.182;5.398;2023-04-15T08:14:47;10.00;99.90
46652;DHT22;32377;52.182;5.398;2023-04-15T08:17:12;10.00;99.90
46652;DHT22;32377;52.182;5.398;2023-04-15T08:19:39;10.10;99.90
46652;DHT22;32377;52.182;5.398;2023-04-15T08:22:05;10.10;99.90
46652;DHT22;32377;52.182;5.398;2023-04-15T08:24:30;10.10;99.90
46652;DHT22;32377;52.182;5.398;2023-04-15T08:26:56;10.20;99.90
46652;DHT22;32377;52.182;5.398;2023-04-15T08:29:22;10.20;99.90
46652;DHT22;32377;52.182;5.398;2023-04-15T08:31:48;10.40;99.90
46652;DHT22;32377;52.182;5.398;2023-04-15T08:34:14;10.40;99.90
46652;DHT22;32377;52.182;5.398;2023-04-15T08:36:42;10.50;99.90
46652;DHT22;32377;52.182;5.398;2023-04-15T08:39:07;10.60;99.90
46652;DHT22;32377;52.182;5.398;2023-04-15T08:41:39;10.60;99.90
46652;DHT22;32377;52.182;5.398;2023-04-15T08:44:05;10.90;99.90
46652;DHT22;32377;52.182;5.398;2023-04-15T08:46:31;11.00;99.90
46652;DHT22;32377;52.182;5.398;2023-04-15T08:48:59;11.00;99.90
46652;DHT22;32377;52.182;5.398;2023-04-15T08:51:28;11.00;99.90
46652;DHT22;32377;52.182;5.398;2023-04-15T08:53:54;11.00;99.90
46652;DHT22;32377;52.182;5.398;2023-04-15T08:56:23;11.10;99.90
46652;DHT22;32377;52.182;5.398;2023-04-15T08:58:49;11.20;99.90
46652;DHT22;32377;52.182;5.398;2023-04-15T09:01:15;11.20;99.90
46652;DHT22;32377;52.182;5.398;2023-04-15T09:03:41;11.30;99.90
46652;DHT22;32377;52.182;5.398;2023-04-15T09:06:08;11.30;99.90
46652;DHT22;32377;52.182;5.398;2023-04-15T09:08:33;11.40;99.90
46652;DHT22;32377;52.182;5.398;2023-04-15T09:11:03;11.40;99.90
46652;DHT22;32377;52.182;5.398;2023-04-15T09:13:29;11.50;99.90
46652;DHT22;32377;52.182;5.398;2023-04-15T09:15:55;11.70;99.90
46652;DHT22;32377;52.182;5.398;2023-04-15T09:18:33;11.70;99.90
46652;DHT22;32377;52.182;5.398;2023-04-15T09:21:15;11.70;99.90
46652;DHT22;32377;52.182;5.398;2023-04-15T09:23:56;11.70;99.90
46652;DHT22;32377;52.182;5.398;2023-04-15T09:26:33;11.90;99.90
46652;DHT22;32377;52.182;5.398;2023-04-15T09:29:06;11.90;99.90
46652;DHT22;32377;52.182;5.398;2023-04-15T09:31:32;11.80;99.90
46652;DHT22;32377;52.182;5.398;2023-04-15T09:33:58;11.70;99.90
46652;DHT22;32377;52.182;5.398;2023-04-15T09:36:23;11.70;99.90
46652;DHT22;32377;52.182;5.398;2023-04-15T09:38:57;11.60;99.90
46652;DHT22;32377;52.182;5.398;2023-04-15T09:41:24;11.70;99.90
46652;DHT22;32377;52.182;5.398;2023-04-15T09:43:49;11.80;99.90
46652;DHT22;32377;52.182;5.398;2023-04-15T09:46:15;11.80;99.90
46652;DHT22;32377;52.182;5.398;2023-04-15T09:48:41;11.80;99.90
46652;DHT22;32377;52.182;5.398;2023-04-15T09:51:06;11.90;99.90
46652;DHT22;32377;52.182;5.398;2023-04-15T09:53:34;11.90;99.90
46652;DHT22;32377;52.182;5.398;2023-04-15T09:59:16;11.80;99.90
46652;DHT22;32377;52.182;5.398;2023-04-15T10:01:43;11.70;99.90
46652;DHT22;32377;52.182;5.398;2023-04-15T10:04:09;11.90;99.90
46652;DHT22;32377;52.182;5.398;2023-04-15T10:06:35;11.90;99.90
46652;DHT22;32377;52.182;5.398;2023-04-15T10:09:01;12.00;99.90
46652;DHT22;32377;52.182;5.398;2023-04-15T10:11:28;12.40;99.90
46652;DHT22;32377;52.182;5.398;2023-04-15T10:13:55;12.50;99.90
46652;DHT22;32377;52.182;5.398;2023-04-15T10:16:22;12.70;99.90
46652;DHT22;32377;52.182;5.398;2023-04-15T10:18:54;12.90;99.90
46652;DHT22;32377;52.182;5.398;2023-04-15T10:21:21;12.80;99.90
46652;DHT22;32377;52.182;5.398;2023-04-15T10:23:48;12.80;99.90
46652;DHT22;32377;52.182;5.398;2023-04-15T10:26:15;12.60;99.90
46652;DHT22;32377;52.182;5.398;2023-04-15T10:28:44;12.30;99.90
46652;DHT22;32377;52.182;5.398;2023-04-15T10:31:14;12.30;99.90
46652;DHT22;32377;52.182;5.398;2023-04-15T10:33:41;12.60;99.90
46652;DHT22;32377;52.182;5.398;2023-04-15T10:36:07;12.90;99.90
46652;DHT22;32377;52.182;5.398;2023-04-15T10:38:40;13.00;99.90
46652;DHT22;32377;52.182;5.398;2023-04-15T10:41:27;13.00;99.90
46652;DHT22;32377;52.182;5.398;2023-04-15T10:43:59;13.20;99.90
46652;DHT22;32377;52.182;5.398;2023-04-15T10:46:43;13.00;99.90
46652;DHT22;32377;52.182;5.398;2023-04-15T10:49:10;12.90;99.90
46652;DHT22;32377;52.182;5.398;2023-04-15T10:51:39;12.80;99.90
46652;DHT22;32377;52.182;5.398;2023-04-15T10:54:13;12.90;99.90
46652;DHT22;32377;52.182;5.398;2023-04-15T10:56:43;13.00;99.90
46652;DHT22;32377;52.182;5.398;2023-04-15T10:59:10;13.00;99.90
46652;DHT22;32377;52.182;5.398;2023-04-15T11:02:11;13.00;99.90
46652;DHT22;32377;52.182;5.398;2023-04-15T11:04:51;13.20;99.90
46652;DHT22;32377;52.182;5.398;2023-04-15T11:07:37;13.20;99.90
46652;DHT22;32377;52.182;5.398;2023-04-15T11:12:59;13.50;99.90
46652;DHT22;32377;52.182;5.398;2023-04-15T11:15:33;13.50;99.90
46652;DHT22;32377;52.182;5.398;2023-04-15T11:18:10;13.50;99.90
46652;DHT22;32377;52.182;5.398;2023-04-15T11:20:36;13.30;99.90
46652;DHT22;32377;52.182;5.398;2023-04-15T11:23:03;13.00;99.90
46652;DHT22;32377;52.182;5.398;2023-04-15T11:25:33;12.80;99.90
46652;DHT22;32377;52.182;5.398;2023-04-15T11:28:00;13.00;99.90
46652;DHT22;32377;52.182;5.398;2023-04-15T11:30:28;13.10;99.90
46652;DHT22;32377;52.182;5.398;2023-04-15T11:32:58;13.20;99.90
46652;DHT22;32377;52.182;5.398;2023-04-15T11:35:24;13.20;99.90
46652;DHT22;32377;52.182;5.398;2023-04-15T11:37:50;13.30;99.90
46652;DHT22;32377;52.182;5.398;2023-04-15T11:40:21;13.40;99.90
46652;DHT22;32377;52.182;5.398;2023-04-15T11:42:46;13.20;99.90
46652;DHT22;32377;52.182;5.398;2023-04-15T11:45:27;13.30;99.90
46652;DHT22;32377;52.182;5.398;2023-04-15T11:47:53;13.20;99.90
46652;DHT22;32377;52.182;5.398;2023-04-15T11:50:21;13.30;99.90
46652;DHT22;32377;52.182;5.398;2023-04-15T11:53:01;13.40;99.90
46652;DHT22;32377;52.182;5.398;2023-04-15T11:55:27;13.50;99.90
46652;DHT22;32377;52.182;5.398;2023-04-15T12:00:47;13.30;99.90
46652;DHT22;32377;52.182;5.398;2023-04-15T12:03:35;13.20;99.90
46652;DHT22;32377;52.182;5.398;2023-04-15T12:06:17;13.30;99.90
46652;DHT22;32377;52.182;5.398;2023-04-15T12:09:10;13.50;99.90
46652;DHT22;32377;52.182;5.398;2023-04-15T12:11:49;13.20;99.90
46652;DHT22;32377;52.182;5.398;2023-04-15T12:16:57;13.20;99.90
46652;DHT22;32377;52.182;5.398;2023-04-15T12:19:30;13.50;99.90
46652;DHT22;32377;52.182;5.398;2023-04-15T12:22:11;13.50;99.90
46652;DHT22;32377;52.182;5.398;2023-04-15T12:24:37;13.30;99.90
46652;DHT22;32377;52.182;5.398;2023-04-15T12:27:14;13.00;99.90
46652;DHT22;32377;52.182;5.398;2023-04-15T12:29:41;13.00;99.90
46652;DHT22;32377;52.182;5.398;2023-04-15T12:32:15;13.00;99.90
46652;DHT22;32377;52.182;5.398;2023-04-15T12:34:46;12.80;99.90
46652;DHT22;32377;52.182;5.398;2023-04-15T12:37:13;13.00;99.90
46652;DHT22;32377;52.182;5.398;2023-04-15T12:39:41;13.20;99.90
46652;DHT22;32377;52.182;5.398;2023-04-15T12:42:07;13.30;99.90
46652;DHT22;32377;52.182;5.398;2023-04-15T12:44:33;13.20;99.90
46652;DHT22;32377;52.182;5.398;2023-04-15T12:47:00;13.10;99.90
46652;DHT22;32377;52.182;5.398;2023-04-15T12:49:26;12.90;99.90
46652;DHT22;32377;52.182;5.398;2023-04-15T12:51:53;13.00;99.90
46652;DHT22;32377;52.182;5.398;2023-04-15T12:54:20;13.00;99.90
46652;DHT22;32377;52.182;5.398;2023-04-15T12:56:47;12.90;99.90
46652;DHT22;32377;52.182;5.398;2023-04-15T12:59:13;13.10;99.90
46652;DHT22;32377;52.182;5.398;2023-04-15T13:01:40;13.10;99.90
46652;DHT22;32377;52.182;5.398;2023-04-15T13:04:06;12.90;99.90
46652;DHT22;32377;52.182;5.398;2023-04-15T13:06:32;12.90;99.90
46652;DHT22;32377;52.182;5.398;2023-04-15T13:09:01;12.80;99.90
46652;DHT22;32377;52.182;5.398;2023-04-15T13:11:28;12.90;99.90
46652;DHT22;32377;52.182;5.398;2023-04-15T13:13:56;12.80;99.90
46652;DHT22;32377;52.182;5.398;2023-04-15T13:16:22;12.50;99.90
46652;DHT22;32377;52.182;5.398;2023-04-15T13:18:49;12.30;99.90
46652;DHT22;32377;52.182;5.398;2023-04-15T13:21:15;12.40;99.90
46652;DHT22;32377;52.182;5.398;2023-04-15T13:23:41;12.60;99.90
46652;DHT22;32377;52.182;5.398;2023-04-15T13:26:07;12.50;99.90
46652;DHT22;32377;52.182;5.398;2023-04-15T13:28:32;12.50;99.90
46652;DHT22;32377;52.182;5.398;2023-04-15T13:30:58;12.40;99.90
46652;DHT22;32377;52.182;5.398;2023-04-15T13:33:24;12.30;99.90
46652;DHT22;32377;52.182;5.398;2023-04-15T13:35:50;12.20;99.90
46652;DHT22;32377;52.182;5.398;2023-04-15T13:38:16;12.20;99.90
46652;DHT22;32377;52.182;5.398;2023-04-15T13:40:41;12.10;99.90
46652;DHT22;32377;52.182;5.398;2023-04-15T13:43:07;12.30;99.90
46652;DHT22;32377;52.182;5.398;2023-04-15T13:45:33;12.20;99.90
46652;DHT22;32377;52.182;5.398;2023-04-15T13:47:58;12.20;99.90
46652;DHT22;32377;52.182;5.398;2023-04-15T13:50:24;12.10;99.90
46652;DHT22;32377;52.182;5.398;2023-04-15T13:52:50;12.10;99.90
46652;DHT22;32377;52.182;5.398;2023-04-15T13:55:15;12.20;99.90
46652;DHT22;32377;52.182;5.398;2023-04-15T13:57:41;12.10;99.90
46652;DHT22;32377;52.182;5.398;2023-04-15T14:00:07;12.20;99.90
46652;DHT22;32377;52.182;5.398;2023-04-15T14:02:33;12.20;99.90
46652;DHT22;32377;52.182;5.398;2023-04-15T14:04:58;12.00;99.90
46652;DHT22;32377;52.182;5.398;2023-04-15T14:07:24;11.90;99.90
46652;DHT22;32377;52.182;5.398;2023-04-15T14:09:50;11.90;99.90
46652;DHT22;32377;52.182;5.398;2023-04-15T14:12:15;11.90;99.90
46652;DHT22;32377;52.182;5.398;2023-04-15T14:14:41;11.80;99.90
46652;DHT22;32377;52.182;5.398;2023-04-15T14:17:06;11.60;99.90
46652;DHT22;32377;52.182;5.398;2023-04-15T14:19:34;11.30;99.90
46652;DHT22;32377;52.182;5.398;2023-04-15T14:22:00;11.10;99.90
46652;DHT22;32377;52.182;5.398;2023-04-15T14:24:26;11.00;99.90
46652;DHT22;32377;52.182;5.398;2023-04-15T14:26:52;11.00;99.90
46652;DHT22;32377;52.182;5.398;2023-04-15T14:29:17;10.90;99.90
46652;DHT22;32377;52.182;5.398;2023-04-15T14:31:43;10.80;99.90
46652;DHT22;32377;52.182;5.398;2023-04-15T14:34:13;11.10;99.90
46652;DHT22;32377;52.182;5.398;2023-04-15T14:36:38;11.20;99.90
46652;DHT22;32377;52.182;5.398;2023-04-15T14:39:06;11.10;99.90
46652;DHT22;32377;52.182;5.398;2023-04-15T14:41:32;11.10;99.90
46652;DHT22;32377;52.182;5.398;2023-04-15T14:43:58;11.30;99.90
46652;DHT22;32377;52.182;5.398;2023-04-15T14:46:24;11.30;99.90
46652;DHT22;32377;52.182;5.398;2023-04-15T14:48:50;11.40;99.90
46652;DHT22;32377;52.182;5.398;2023-04-15T14:51:15;11.40;99.90
46652;DHT22;32377;52.182;5.398;2023-04-15T14:53:41;11.30;99.90
46652;DHT22;32377;52.182;5.398;2023-04-15T14:56:07;11.10;99.90
46652;DHT22;32377;52.182;5.398;2023-04-15T14:58:33;11.00;99.90
46652;DHT22;32377;52.182;5.398;2023-04-15T15:00:58;10.70;99.90
46652;DHT22;32377;52.182;5.398;2023-04-15T15:03:26;11.00;99.90
46652;DHT22;32377;52.182;5.398;2023-04-15T15:05:51;10.90;99.90
46652;DHT22;32377;52.182;5.398;2023-04-15T15:08:17;11.00;99.90
46652;DHT22;32377;52.182;5.398;2023-04-15T15:10:43;11.10;99.90
46652;DHT22;32377;52.182;5.398;2023-04-15T15:13:09;11.10;99.90
46652;DHT22;32377;52.182;5.398;2023-04-15T15:15:36;11.10;99.90
46652;DHT22;32377;52.182;5.398;2023-04-15T15:18:02;10.90;99.90
46652;DHT22;32377;52.182;5.398;2023-04-15T15:20:28;10.80;99.90
46652;DHT22;32377;52.182;5.398;2023-04-15T15:22:53;10.60;99.90
46652;DHT22;32377;52.182;5.398;2023-04-15T15:25:19;10.40;99.90
46652;DHT22;32377;52.182;5.398;2023-04-15T15:27:45;10.40;99.90
46652;DHT22;32377;52.182;5.398;2023-04-15T15:30:11;10.30;99.90
46652;DHT22;32377;52.182;5.398;2023-04-15T15:32:39;10.20;99.90
46652;DHT22;32377;52.182;5.398;2023-04-15T15:35:06;10.20;99.90
46652;DHT22;32377;52.182;5.398;2023-04-15T15:37:32;10.10;99.90
46652;DHT22;32377;52.182;5.398;2023-04-15T15:39:58;10.00;99.90
46652;DHT22;32377;52.182;5.398;2023-04-15T15:42:25;10.00;99.90
46652;DHT22;32377;52.182;5.398;2023-04-15T15:44:50;9.90;99.90
46652;DHT22;32377;52.182;5.398;2023-04-15T15:47:17;9.80;99.90
46652;DHT22;32377;52.182;5.398;2023-04-15T15:49:43;9.90;99.90
46652;DHT22;32377;52.182;5.398;2023-04-15T15:52:10;9.80;99.90